Las Brenas, Argentina
Current Conditions -  °F | °C
As of 4:00 PM on Thursday 18 Dec 2014 (Local Time) from SARE Reporting Station
Scattered Clouds Scattered Clouds  
Wind Chill: 88°   Ceiling: Unl
Heat Index: 96°   Visibility: 6mi
Dew Point: 73°   Wind: 5mph
Humidity: 62%   Direction: 140°SE
Pressure: 29.8"   Gusts: NA
Location:  27.08°S, 61.08°W
Report Text: SARE 181900Z 14004KT 9999 FEW030 SCT040TCU 31/23 Q1009
Loading
Personal Weather Stations






























Interactive Weather Map New forecast layout! Learn more

10-Day Weather Forecast

Advertisements
Track Severe Weather on mobile